sensor_id;sensor_type;location;lat;lon;timestamp;pressure;altitude;pressure_sealevel;temperature;humidity
3812;BME280;1921;49.368;11.068;2023-04-08T00:02:03;97830.53;;;5.56;81.38
3812;BME280;1921;49.368;11.068;2023-04-08T00:04:28;97800.78;;;5.42;81.84
3812;BME280;1921;49.368;11.068;2023-04-08T00:06:54;97827.00;;;5.57;81.72
3812;BME280;1921;49.368;11.068;2023-04-08T00:09:20;97799.41;;;5.38;81.79
3812;BME280;1921;49.368;11.068;2023-04-08T00:11:46;97849.06;;;5.61;81.93
3812;BME280;1921;49.368;11.068;2023-04-08T00:14:12;97858.81;;;5.77;82.13
3812;BME280;1921;49.368;11.068;2023-04-08T00:16:37;97793.56;;;5.26;82.05
3812;BME280;1921;49.368;11.068;2023-04-08T00:19:03;97819.13;;;5.49;81.98
3812;BME280;1921;49.368;11.068;2023-04-08T00:21:31;97833.69;;;5.59;82.18
3812;BME280;1921;49.368;11.068;2023-04-08T00:23:57;97802.66;;;5.50;82.61
3812;BME280;1921;49.368;11.068;2023-04-08T00:26:22;97816.25;;;5.61;82.50
3812;BME280;1921;49.368;11.068;2023-04-08T00:28:48;97806.69;;;5.62;83.24
3812;BME280;1921;49.368;11.068;2023-04-08T00:31:14;97888.00;;;6.16;83.20
3812;BME280;1921;49.368;11.068;2023-04-08T00:33:40;97763.44;;;5.54;83.63
3812;BME280;1921;49.368;11.068;2023-04-08T00:36:05;97860.34;;;6.16;82.41
3812;BME280;1921;49.368;11.068;2023-04-08T00:38:31;97791.91;;;5.82;82.47
3812;BME280;1921;49.368;11.068;2023-04-08T00:40:57;97853.31;;;6.27;82.86
3812;BME280;1921;49.368;11.068;2023-04-08T00:43:23;97874.53;;;6.40;81.94
3812;BME280;1921;49.368;11.068;2023-04-08T00:45:49;97832.38;;;6.20;81.85
3812;BME280;1921;49.368;11.068;2023-04-08T00:48:14;97823.13;;;6.17;82.03
3812;BME280;1921;49.368;11.068;2023-04-08T00:50:42;97843.34;;;6.32;81.67
3812;BME280;1921;49.368;11.068;2023-04-08T00:53:08;97824.19;;;6.25;81.81
3812;BME280;1921;49.368;11.068;2023-04-08T00:55:34;97851.75;;;6.43;81.50
3812;BME280;1921;49.368;11.068;2023-04-08T00:58:00;97815.03;;;6.03;79.74
3812;BME280;1921;49.368;11.068;2023-04-08T01:00:28;97824.28;;;6.05;80.14
3812;BME280;1921;49.368;11.068;2023-04-08T01:03:24;97889.63;;;6.44;80.66
3812;BME280;1921;49.368;11.068;2023-04-08T01:05:59;97753.03;;;5.64;81.01
3812;BME280;1921;49.368;11.068;2023-04-08T01:08:30;97881.63;;;6.38;81.73
3812;BME280;1921;49.368;11.068;2023-04-08T01:11:00;97848.59;;;6.22;81.16
3812;BME280;1921;49.368;11.068;2023-04-08T01:13:33;97796.28;;;5.91;81.75
3812;BME280;1921;49.368;11.068;2023-04-08T01:16:01;97828.06;;;6.11;81.82
3812;BME280;1921;49.368;11.068;2023-04-08T01:18:28;97869.78;;;6.35;81.83
3812;BME280;1921;49.368;11.068;2023-04-08T01:20:55;97827.41;;;6.09;81.24
3812;BME280;1921;49.368;11.068;2023-04-08T01:26:22;97837.31;;;6.13;81.16
3812;BME280;1921;49.368;11.068;2023-04-08T01:28:53;97882.19;;;6.32;81.02
3812;BME280;1921;49.368;11.068;2023-04-08T01:31:21;97854.38;;;6.06;80.77
3812;BME280;1921;49.368;11.068;2023-04-08T01:33:49;97833.72;;;5.87;80.69
3812;BME280;1921;49.368;11.068;2023-04-08T01:36:16;97832.50;;;5.91;81.42
3812;BME280;1921;49.368;11.068;2023-04-08T01:38:43;97867.91;;;5.81;82.75
3812;BME280;1921;49.368;11.068;2023-04-08T01:41:10;97826.75;;;5.50;83.10
3812;BME280;1921;49.368;11.068;2023-04-08T01:43:40;97859.28;;;5.43;84.83
3812;BME280;1921;49.368;11.068;2023-04-08T01:46:10;97847.69;;;5.57;84.40
3812;BME280;1921;49.368;11.068;2023-04-08T01:48:37;97881.13;;;5.97;83.86
3812;BME280;1921;49.368;11.068;2023-04-08T01:51:04;97823.59;;;5.56;83.63
3812;BME280;1921;49.368;11.068;2023-04-08T01:53:31;97825.59;;;5.72;83.66
3812;BME280;1921;49.368;11.068;2023-04-08T01:56:11;97834.00;;;5.84;83.48
3812;BME280;1921;49.368;11.068;2023-04-08T01:58:42;97870.97;;;6.13;82.96
3812;BME280;1921;49.368;11.068;2023-04-08T02:01:13;97831.66;;;6.00;82.35
3812;BME280;1921;49.368;11.068;2023-04-08T02:03:43;97882.34;;;6.30;82.34
3812;BME280;1921;49.368;11.068;2023-04-08T02:06:09;97810.44;;;5.87;82.06
3812;BME280;1921;49.368;11.068;2023-04-08T02:08:35;97814.09;;;5.94;82.58
3812;BME280;1921;49.368;11.068;2023-04-08T02:11:02;97844.50;;;6.19;81.37
3812;BME280;1921;49.368;11.068;2023-04-08T02:13:31;97830.31;;;6.24;80.82
3812;BME280;1921;49.368;11.068;2023-04-08T02:16:11;97886.59;;;6.59;80.43
3812;BME280;1921;49.368;11.068;2023-04-08T02:18:43;97843.75;;;6.37;79.63
3812;BME280;1921;49.368;11.068;2023-04-08T02:21:13;97855.53;;;6.49;79.20
3812;BME280;1921;49.368;11.068;2023-04-08T02:23:41;97891.03;;;6.66;79.05
3812;BME280;1921;49.368;11.068;2023-04-08T02:26:15;97846.41;;;6.45;78.66
3812;BME280;1921;49.368;11.068;2023-04-08T02:28:42;97825.06;;;6.33;78.24
3812;BME280;1921;49.368;11.068;2023-04-08T02:31:11;97827.44;;;6.27;78.08
3812;BME280;1921;49.368;11.068;2023-04-08T02:33:41;97888.72;;;6.63;77.69
3812;BME280;1921;49.368;11.068;2023-04-08T02:36:07;97835.06;;;6.28;77.97
3812;BME280;1921;49.368;11.068;2023-04-08T02:38:34;97895.00;;;6.61;77.86
3812;BME280;1921;49.368;11.068;2023-04-08T02:41:00;97828.22;;;6.09;77.67
3812;BME280;1921;49.368;11.068;2023-04-08T02:43:26;97881.88;;;6.44;77.94
3812;BME280;1921;49.368;11.068;2023-04-08T02:45:57;97861.53;;;6.22;78.30
3812;BME280;1921;49.368;11.068;2023-04-08T02:48:29;97882.16;;;6.41;77.42
3812;BME280;1921;49.368;11.068;2023-04-08T02:50:55;97853.09;;;6.20;77.49
3812;BME280;1921;49.368;11.068;2023-04-08T02:53:23;97859.69;;;6.32;77.74
3812;BME280;1921;49.368;11.068;2023-04-08T02:55:49;97899.81;;;6.56;76.68
3812;BME280;1921;49.368;11.068;2023-04-08T02:58:15;97854.56;;;6.50;75.02
3812;BME280;1921;49.368;11.068;2023-04-08T03:00:41;97861.84;;;6.46;75.39
3812;BME280;1921;49.368;11.068;2023-04-08T03:03:07;97825.94;;;6.24;75.84
3812;BME280;1921;49.368;11.068;2023-04-08T03:05:32;97827.16;;;6.30;74.79
3812;BME280;1921;49.368;11.068;2023-04-08T03:07:58;97860.06;;;6.47;75.06
3812;BME280;1921;49.368;11.068;2023-04-08T03:10:24;97810.59;;;6.13;75.41
3812;BME280;1921;49.368;11.068;2023-04-08T03:12:50;97859.44;;;6.35;75.00
3812;BME280;1921;49.368;11.068;2023-04-08T03:15:16;97856.41;;;6.40;74.24
3812;BME280;1921;49.368;11.068;2023-04-08T03:17:42;97896.63;;;6.62;74.13
3812;BME280;1921;49.368;11.068;2023-04-08T03:20:08;97887.97;;;6.53;74.74
3812;BME280;1921;49.368;11.068;2023-04-08T03:22:35;97885.00;;;6.48;74.72
3812;BME280;1921;49.368;11.068;2023-04-08T03:25:00;97886.94;;;6.46;73.95
3812;BME280;1921;49.368;11.068;2023-04-08T03:27:26;97849.16;;;6.16;74.23
3812;BME280;1921;49.368;11.068;2023-04-08T03:29:52;97846.00;;;6.22;74.00
3812;BME280;1921;49.368;11.068;2023-04-08T03:32:18;97875.72;;;6.45;73.07
3812;BME280;1921;49.368;11.068;2023-04-08T03:34:44;97858.38;;;6.28;73.79
3812;BME280;1921;49.368;11.068;2023-04-08T03:37:10;97894.00;;;6.44;72.93
3812;BME280;1921;49.368;11.068;2023-04-08T03:39:37;97892.00;;;6.38;73.48
3812;BME280;1921;49.368;11.068;2023-04-08T03:42:03;97814.53;;;5.80;73.61
3812;BME280;1921;49.368;11.068;2023-04-08T03:44:28;97857.53;;;6.00;73.91
3812;BME280;1921;49.368;11.068;2023-04-08T03:46:54;97839.31;;;5.82;74.49
3812;BME280;1921;49.368;11.068;2023-04-08T03:49:20;97894.00;;;6.16;74.70
3812;BME280;1921;49.368;11.068;2023-04-08T03:51:46;97870.06;;;5.95;74.93
3812;BME280;1921;49.368;11.068;2023-04-08T03:54:11;97912.38;;;6.13;74.73
3812;BME280;1921;49.368;11.068;2023-04-08T03:56:37;97857.22;;;5.66;75.40
3812;BME280;1921;49.368;11.068;2023-04-08T03:59:03;97845.41;;;5.54;75.66
3812;BME280;1921;49.368;11.068;2023-04-08T04:01:28;97895.56;;;5.80;76.33
3812;BME280;1921;49.368;11.068;2023-04-08T04:03:57;97860.78;;;5.55;76.39
3812;BME280;1921;49.368;11.068;2023-04-08T04:06:22;97898.72;;;5.74;76.17
3812;BME280;1921;49.368;11.068;2023-04-08T04:08:48;97870.72;;;5.50;76.25
3812;BME280;1921;49.368;11.068;2023-04-08T04:11:15;97871.66;;;5.49;76.74
3812;BME280;1921;49.368;11.068;2023-04-08T04:13:41;97840.13;;;5.26;76.85
3812;BME280;1921;49.368;11.068;2023-04-08T04:16:06;97882.28;;;5.46;76.90
3812;BME280;1921;49.368;11.068;2023-04-08T04:18:32;97888.66;;;5.52;76.99
3812;BME280;1921;49.368;11.068;2023-04-08T04:20:58;97876.72;;;5.41;77.16
3812;BME280;1921;49.368;11.068;2023-04-08T04:23:23;97912.66;;;5.54;77.51
3812;BME280;1921;49.368;11.068;2023-04-08T04:25:50;97870.31;;;5.26;77.91
3812;BME280;1921;49.368;11.068;2023-04-08T04:28:16;97890.47;;;5.42;77.51
3812;BME280;1921;49.368;11.068;2023-04-08T04:30:42;97891.13;;;5.44;77.22
3812;BME280;1921;49.368;11.068;2023-04-08T04:33:07;97882.44;;;5.45;76.96
3812;BME280;1921;49.368;11.068;2023-04-08T04:35:33;97911.00;;;5.62;76.70
3812;BME280;1921;49.368;11.068;2023-04-08T04:37:59;97891.66;;;5.57;76.82
3812;BME280;1921;49.368;11.068;2023-04-08T04:40:25;97894.66;;;5.62;77.46
3812;BME280;1921;49.368;11.068;2023-04-08T04:42:51;97927.28;;;5.82;77.06
3812;BME280;1921;49.368;11.068;2023-04-08T04:45:17;97858.34;;;5.44;77.13
3812;BME280;1921;49.368;11.068;2023-04-08T04:47:42;97914.09;;;5.85;77.31
3812;BME280;1921;49.368;11.068;2023-04-08T04:50:08;97904.25;;;5.89;76.36
3812;BME280;1921;49.368;11.068;2023-04-08T04:52:35;97894.63;;;5.91;76.89
3812;BME280;1921;49.368;11.068;2023-04-08T04:55:01;97878.28;;;5.81;75.02
3812;BME280;1921;49.368;11.068;2023-04-08T04:57:27;97933.75;;;6.25;73.99
3812;BME280;1921;49.368;11.068;2023-04-08T04:59:52;97929.38;;;6.26;73.76
3812;BME280;1921;49.368;11.068;2023-04-08T05:02:18;97918.06;;;6.27;74.12
3812;BME280;1921;49.368;11.068;2023-04-08T05:04:44;97935.75;;;6.41;73.80
3812;BME280;1921;49.368;11.068;2023-04-08T05:07:10;97909.97;;;6.39;72.28
3812;BME280;1921;49.368;11.068;2023-04-08T05:09:36;97911.38;;;6.34;72.40
3812;BME280;1921;49.368;11.068;2023-04-08T05:12:01;97915.13;;;6.49;70.76
3812;BME280;1921;49.368;11.068;2023-04-08T05:14:30;97916.75;;;6.50;70.75
3812;BME280;1921;49.368;11.068;2023-04-08T05:16:56;97943.53;;;6.68;71.30
3812;BME280;1921;49.368;11.068;2023-04-08T05:19:22;97909.16;;;6.39;71.12
3812;BME280;1921;49.368;11.068;2023-04-08T05:21:48;97925.09;;;6.44;69.84
3812;BME280;1921;49.368;11.068;2023-04-08T05:24:13;97943.44;;;6.60;70.68
3812;BME280;1921;49.368;11.068;2023-04-08T05:26:39;97922.63;;;6.52;70.01
3812;BME280;1921;49.368;11.068;2023-04-08T05:29:05;97938.28;;;6.51;69.34
3812;BME280;1921;49.368;11.068;2023-04-08T05:31:30;97946.53;;;6.64;69.51
3812;BME280;1921;49.368;11.068;2023-04-08T05:33:56;97975.66;;;6.75;69.76
3812;BME280;1921;49.368;11.068;2023-04-08T05:36:22;97915.78;;;6.51;69.70
3812;BME280;1921;49.368;11.068;2023-04-08T05:38:47;97961.31;;;6.81;69.28
3812;BME280;1921;49.368;11.068;2023-04-08T05:41:13;97976.28;;;6.87;68.30
3812;BME280;1921;49.368;11.068;2023-04-08T05:43:39;97926.53;;;6.56;68.35
3812;BME280;1921;49.368;11.068;2023-04-08T05:46:06;97959.56;;;6.54;67.56
3812;BME280;1921;49.368;11.068;2023-04-08T05:48:32;97937.38;;;6.42;68.17
3812;BME280;1921;49.368;11.068;2023-04-08T05:50:58;97955.84;;;6.19;67.68
3812;BME280;1921;49.368;11.068;2023-04-08T05:53:24;97999.50;;;6.05;69.73
3812;BME280;1921;49.368;11.068;2023-04-08T05:55:50;97947.75;;;5.85;70.61
3812;BME280;1921;49.368;11.068;2023-04-08T05:58:16;97947.47;;;5.98;70.53
3812;BME280;1921;49.368;11.068;2023-04-08T06:00:42;97978.53;;;5.98;71.72
3812;BME280;1921;49.368;11.068;2023-04-08T06:03:07;97936.31;;;5.59;73.13
3812;BME280;1921;49.368;11.068;2023-04-08T06:05:33;97997.31;;;6.00;76.14
3812;BME280;1921;49.368;11.068;2023-04-08T06:07:59;97966.25;;;6.00;76.40
3812;BME280;1921;49.368;11.068;2023-04-08T06:10:25;97967.75;;;5.83;77.80
3812;BME280;1921;49.368;11.068;2023-04-08T06:12:50;98000.72;;;5.52;81.72
3812;BME280;1921;49.368;11.068;2023-04-08T06:15:16;97982.47;;;5.25;84.46
3812;BME280;1921;49.368;11.068;2023-04-08T06:17:42;97963.41;;;5.26;84.25
3812;BME280;1921;49.368;11.068;2023-04-08T06:20:08;97945.06;;;5.29;84.27
3812;BME280;1921;49.368;11.068;2023-04-08T06:22:35;97956.59;;;5.44;86.63
3812;BME280;1921;49.368;11.068;2023-04-08T06:25:01;98002.47;;;5.71;87.11
3812;BME280;1921;49.368;11.068;2023-04-08T06:27:27;97998.81;;;6.03;87.09
3812;BME280;1921;49.368;11.068;2023-04-08T06:29:53;97943.94;;;5.80;86.09
3812;BME280;1921;49.368;11.068;2023-04-08T06:32:20;97966.28;;;5.61;86.18
3812;BME280;1921;49.368;11.068;2023-04-08T06:34:47;97997.72;;;5.76;89.33
3812;BME280;1921;49.368;11.068;2023-04-08T06:37:13;97955.38;;;5.67;89.57
3812;BME280;1921;49.368;11.068;2023-04-08T06:39:38;98007.25;;;5.85;90.35
3812;BME280;1921;49.368;11.068;2023-04-08T06:42:04;97980.28;;;5.10;94.34
3812;BME280;1921;49.368;11.068;2023-04-08T06:44:30;97990.88;;;5.27;94.79
3812;BME280;1921;49.368;11.068;2023-04-08T06:46:56;97981.44;;;4.87;96.12
3812;BME280;1921;49.368;11.068;2023-04-08T06:49:22;97960.97;;;4.34;100.00
3812;BME280;1921;49.368;11.068;2023-04-08T06:51:48;98021.75;;;4.69;100.00
3812;BME280;1921;49.368;11.068;2023-04-08T06:54:14;97997.25;;;4.32;100.00
3812;BME280;1921;49.368;11.068;2023-04-08T06:56:39;97998.59;;;4.57;100.00
3812;BME280;1921;49.368;11.068;2023-04-08T06:59:05;97806.38;;;3.30;100.00
3812;BME280;1921;49.368;11.068;2023-04-08T07:01:31;98033.78;;;4.79;100.00
3812;BME280;1921;49.368;11.068;2023-04-08T07:03:57;98003.69;;;4.69;100.00
3812;BME280;1921;49.368;11.068;2023-04-08T07:06:23;97991.94;;;4.55;100.00
3812;BME280;1921;49.368;11.068;2023-04-08T07:08:49;98041.03;;;4.65;100.00
3812;BME280;1921;49.368;11.068;2023-04-08T07:11:15;97998.16;;;4.22;100.00
3812;BME280;1921;49.368;11.068;2023-04-08T07:13:41;97993.41;;;4.48;100.00
3812;BME280;1921;49.368;11.068;2023-04-08T07:16:06;97991.69;;;4.07;100.00
3812;BME280;1921;49.368;11.068;2023-04-08T07:18:32;98014.59;;;4.21;100.00
3812;BME280;1921;49.368;11.068;2023-04-08T07:20:58;98038.38;;;4.45;100.00
3812;BME280;1921;49.368;11.068;2023-04-08T07:23:26;97973.50;;;4.39;100.00
3812;BME280;1921;49.368;11.068;2023-04-08T07:25:52;98020.19;;;4.26;100.00
3812;BME280;1921;49.368;11.068;2023-04-08T07:28:21;97991.38;;;4.51;100.00
3812;BME280;1921;49.368;11.068;2023-04-08T07:30:47;98043.56;;;5.16;100.00
3812;BME280;1921;49.368;11.068;2023-04-08T07:33:12;98032.66;;;5.12;100.00
3812;BME280;1921;49.368;11.068;2023-04-08T07:35:39;98019.16;;;4.99;100.00
3812;BME280;1921;49.368;11.068;2023-04-08T07:38:06;98070.41;;;5.44;100.00
3812;BME280;1921;49.368;11.068;2023-04-08T07:40:35;98039.38;;;4.94;100.00
3812;BME280;1921;49.368;11.068;2023-04-08T07:43:01;98011.00;;;4.64;100.00
3812;BME280;1921;49.368;11.068;2023-04-08T07:45:27;98085.03;;;5.14;100.00
3812;BME280;1921;49.368;11.068;2023-04-08T07:47:53;98059.16;;;5.14;100.00
3812;BME280;1921;49.368;11.068;2023-04-08T07:50:18;98089.03;;;5.28;100.00
3812;BME280;1921;49.368;11.068;2023-04-08T07:52:44;98054.97;;;4.83;100.00
3812;BME280;1921;49.368;11.068;2023-04-08T07:55:10;98051.97;;;4.78;100.00
3812;BME280;1921;49.368;11.068;2023-04-08T07:57:36;98041.75;;;4.67;100.00
3812;BME280;1921;49.368;11.068;2023-04-08T08:00:02;98057.56;;;4.83;100.00
3812;BME280;1921;49.368;11.068;2023-04-08T08:02:29;98050.22;;;4.78;100.00
3812;BME280;1921;49.368;11.068;2023-04-08T08:04:54;98036.06;;;4.73;100.00
3812;BME280;1921;49.368;11.068;2023-04-08T08:07:20;98083.69;;;5.20;100.00
3812;BME280;1921;49.368;11.068;2023-04-08T08:09:46;98076.59;;;5.12;100.00
3812;BME280;1921;49.368;11.068;2023-04-08T08:12:12;98077.31;;;5.24;100.00
3812;BME280;1921;49.368;11.068;2023-04-08T08:14:37;98121.25;;;5.24;100.00
3812;BME280;1921;49.368;11.068;2023-04-08T08:17:03;98045.88;;;4.79;100.00
3812;BME280;1921;49.368;11.068;2023-04-08T08:19:29;98057.13;;;5.08;100.00
3812;BME280;1921;49.368;11.068;2023-04-08T08:21:55;98082.72;;;5.21;100.00
3812;BME280;1921;49.368;11.068;2023-04-08T08:24:21;98044.75;;;5.12;100.00
3812;BME280;1921;49.368;11.068;2023-04-08T08:26:47;98118.38;;;5.67;100.00
3812;BME280;1921;49.368;11.068;2023-04-08T08:29:13;98001.69;;;4.82;100.00
3812;BME280;1921;49.368;11.068;2023-04-08T08:31:39;98075.13;;;4.89;100.00
3812;BME280;1921;49.368;11.068;2023-04-08T08:34:05;98072.56;;;4.38;100.00
3812;BME280;1921;49.368;11.068;2023-04-08T08:36:31;98127.28;;;4.52;100.00
3812;BME280;1921;49.368;11.068;2023-04-08T08:38:56;98078.31;;;4.41;100.00
3812;BME280;1921;49.368;11.068;2023-04-08T08:41:22;98075.31;;;4.67;100.00
3812;BME280;1921;49.368;11.068;2023-04-08T08:43:48;98081.53;;;4.85;100.00
3812;BME280;1921;49.368;11.068;2023-04-08T08:46:16;98061.47;;;4.68;100.00
3812;BME280;1921;49.368;11.068;2023-04-08T08:48:44;98118.97;;;5.31;100.00
3812;BME280;1921;49.368;11.068;2023-04-08T08:51:11;98147.00;;;5.85;100.00
3812;BME280;1921;49.368;11.068;2023-04-08T08:53:37;98097.81;;;5.76;100.00
3812;BME280;1921;49.368;11.068;2023-04-08T08:56:05;98140.88;;;5.86;100.00
3812;BME280;1921;49.368;11.068;2023-04-08T08:58:33;98150.88;;;6.10;100.00
3812;BME280;1921;49.368;11.068;2023-04-08T09:00:59;98091.00;;;5.75;100.00
3812;BME280;1921;49.368;11.068;2023-04-08T09:03:27;98086.25;;;5.60;99.19
3812;BME280;1921;49.368;11.068;2023-04-08T09:05:58;98127.03;;;5.97;100.00
3812;BME280;1921;49.368;11.068;2023-04-08T09:08:30;98151.69;;;6.50;99.51
3812;BME280;1921;49.368;11.068;2023-04-08T09:11:11;98157.81;;;6.58;98.18
3812;BME280;1921;49.368;11.068;2023-04-08T09:13:37;98107.13;;;6.27;98.19
3812;BME280;1921;49.368;11.068;2023-04-08T09:16:09;98149.34;;;6.66;97.49
3812;BME280;1921;49.368;11.068;2023-04-08T09:18:38;98070.75;;;5.99;97.01
3812;BME280;1921;49.368;11.068;2023-04-08T09:21:06;98141.19;;;6.61;98.48
3812;BME280;1921;49.368;11.068;2023-04-08T09:23:51;98109.75;;;6.83;94.30
3812;BME280;1921;49.368;11.068;2023-04-08T09:26:22;98111.50;;;6.92;95.30
3812;BME280;1921;49.368;11.068;2023-04-08T09:29:06;98096.66;;;6.75;95.36
3812;BME280;1921;49.368;11.068;2023-04-08T09:31:38;98075.59;;;6.51;96.38
3812;BME280;1921;49.368;11.068;2023-04-08T09:34:13;98115.75;;;6.84;95.52
3812;BME280;1921;49.368;11.068;2023-04-08T09:36:46;98138.22;;;6.93;95.01
3812;BME280;1921;49.368;11.068;2023-04-08T09:39:14;98144.28;;;7.21;93.37
3812;BME280;1921;49.368;11.068;2023-04-08T09:41:40;98153.91;;;7.38;93.14
3812;BME280;1921;49.368;11.068;2023-04-08T09:44:10;98153.56;;;7.23;92.84
3812;BME280;1921;49.368;11.068;2023-04-08T09:52:20;98167.38;;;6.29;98.33
3812;BME280;1921;49.368;11.068;2023-04-08T09:55:04;98104.94;;;6.12;98.25
3812;BME280;1921;49.368;11.068;2023-04-08T10:00:14;98146.88;;;6.84;97.55
3812;BME280;1921;49.368;11.068;2023-04-08T10:03:28;98100.84;;;6.39;93.18
3812;BME280;1921;49.368;11.068;2023-04-08T10:05:54;98124.28;;;6.47;95.00
3812;BME280;1921;49.368;11.068;2023-04-08T10:08:24;98176.06;;;6.86;94.74
3812;BME280;1921;49.368;11.068;2023-04-08T10:10:51;98147.22;;;6.98;91.34
3812;BME280;1921;49.368;11.068;2023-04-08T10:13:18;98090.28;;;6.69;90.98
3812;BME280;1921;49.368;11.068;2023-04-08T10:15:44;98122.53;;;6.94;92.83
3812;BME280;1921;49.368;11.068;2023-04-08T10:20:45;98100.78;;;6.58;92.29
3812;BME280;1921;49.368;11.068;2023-04-08T10:23:16;98143.25;;;6.47;95.11
3812;BME280;1921;49.368;11.068;2023-04-08T10:25:47;98146.94;;;7.01;95.36
3812;BME280;1921;49.368;11.068;2023-04-08T10:30:49;98146.56;;;7.61;94.79
3812;BME280;1921;49.368;11.068;2023-04-08T10:33:17;98172.38;;;8.08;91.77
3812;BME280;1921;49.368;11.068;2023-04-08T10:35:50;98113.34;;;8.00;86.11
3812;BME280;1921;49.368;11.068;2023-04-08T10:38:18;98138.53;;;8.35;86.64
3812;BME280;1921;49.368;11.068;2023-04-08T10:40:47;98131.16;;;8.31;86.06
3812;BME280;1921;49.368;11.068;2023-04-08T10:43:14;98155.44;;;8.22;87.08
3812;BME280;1921;49.368;11.068;2023-04-08T10:45:41;98140.00;;;8.38;85.31
3812;BME280;1921;49.368;11.068;2023-04-08T10:48:19;98158.66;;;8.51;87.26
3812;BME280;1921;49.368;11.068;2023-04-08T10:53:33;98142.97;;;8.61;86.65
3812;BME280;1921;49.368;11.068;2023-04-08T10:56:11;98153.16;;;8.80;85.54
3812;BME280;1921;49.368;11.068;2023-04-08T10:58:50;98108.31;;;8.78;84.92
3812;BME280;1921;49.368;11.068;2023-04-08T11:01:17;98108.06;;;8.89;83.43
3812;BME280;1921;49.368;11.068;2023-04-08T11:03:43;98142.66;;;9.16;83.22
3812;BME280;1921;49.368;11.068;2023-04-08T11:06:08;98151.22;;;9.42;80.66
3812;BME280;1921;49.368;11.068;2023-04-08T11:08:35;98157.16;;;9.53;80.20
3812;BME280;1921;49.368;11.068;2023-04-08T11:11:02;98105.97;;;9.27;82.85
3812;BME280;1921;49.368;11.068;2023-04-08T11:13:30;98106.44;;;9.31;78.86
3812;BME280;1921;49.368;11.068;2023-04-08T11:15:58;98088.56;;;8.68;80.80
3812;BME280;1921;49.368;11.068;2023-04-08T11:18:24;98134.13;;;9.06;79.50
3812;BME280;1921;49.368;11.068;2023-04-08T11:20:51;98128.81;;;9.07;78.98
3812;BME280;1921;49.368;11.068;2023-04-08T11:23:17;98153.97;;;9.33;79.57
3812;BME280;1921;49.368;11.068;2023-04-08T11:25:45;98146.47;;;9.30;78.16
3812;BME280;1921;49.368;11.068;2023-04-08T11:28:12;98138.09;;;8.22;81.74
3812;BME280;1921;49.368;11.068;2023-04-08T11:30:42;98159.13;;;8.73;81.56
3812;BME280;1921;49.368;11.068;2023-04-08T11:33:08;98106.06;;;8.83;81.38
3812;BME280;1921;49.368;11.068;2023-04-08T11:35:38;98137.09;;;9.11;81.00
3812;BME280;1921;49.368;11.068;2023-04-08T11:38:04;98139.13;;;9.25;78.33
3812;BME280;1921;49.368;11.068;2023-04-08T11:40:30;98125.81;;;9.28;79.90
3812;BME280;1921;49.368;11.068;2023-04-08T11:42:56;98126.25;;;9.58;80.55
3812;BME280;1921;49.368;11.068;2023-04-08T11:45:22;98122.38;;;9.70;80.02
3812;BME280;1921;49.368;11.068;2023-04-08T11:47:47;98165.50;;;10.72;79.66
3812;BME280;1921;49.368;11.068;2023-04-08T11:50:24;98152.63;;;11.42;77.32
3812;BME280;1921;49.368;11.068;2023-04-08T11:52:51;98142.38;;;11.72;70.22
3812;BME280;1921;49.368;11.068;2023-04-08T11:55:26;98160.91;;;9.58;74.23
3812;BME280;1921;49.368;11.068;2023-04-08T11:57:54;98120.94;;;9.33;78.59
3812;BME280;1921;49.368;11.068;2023-04-08T12:00:21;98122.66;;;9.59;76.29
3812;BME280;1921;49.368;11.068;2023-04-08T12:02:48;98129.22;;;9.71;74.02
3812;BME280;1921;49.368;11.068;2023-04-08T12:05:14;98103.91;;;9.47;76.77
3812;BME280;1921;49.368;11.068;2023-04-08T12:07:41;98148.09;;;9.81;74.52
3812;BME280;1921;49.368;11.068;2023-04-08T12:10:09;98123.41;;;10.10;76.29
3812;BME280;1921;49.368;11.068;2023-04-08T12:12:35;98163.13;;;9.95;73.89
3812;BME280;1921;49.368;11.068;2023-04-08T12:15:01;98116.84;;;9.81;75.42
3812;BME280;1921;49.368;11.068;2023-04-08T12:17:27;98121.66;;;10.35;76.13
3812;BME280;1921;49.368;11.068;2023-04-08T12:19:53;98091.69;;;10.39;71.14
3812;BME280;1921;49.368;11.068;2023-04-08T12:22:19;98132.25;;;10.66;73.06
3812;BME280;1921;49.368;11.068;2023-04-08T12:24:44;98106.97;;;10.83;71.51
3812;BME280;1921;49.368;11.068;2023-04-08T12:27:10;98138.84;;;9.79;76.33
3812;BME280;1921;49.368;11.068;2023-04-08T12:29:36;98124.09;;;9.11;78.55
3812;BME280;1921;49.368;11.068;2023-04-08T12:32:02;98104.03;;;9.88;75.63
3812;BME280;1921;49.368;11.068;2023-04-08T12:34:29;98153.78;;;10.51;73.98
3812;BME280;1921;49.368;11.068;2023-04-08T12:36:54;98121.53;;;10.44;71.17
3812;BME280;1921;49.368;11.068;2023-04-08T12:39:20;98126.22;;;10.82;71.06
3812;BME280;1921;49.368;11.068;2023-04-08T12:41:46;98101.28;;;10.71;71.90
3812;BME280;1921;49.368;11.068;2023-04-08T12:44:12;98081.59;;;10.52;69.35
3812;BME280;1921;49.368;11.068;2023-04-08T12:46:38;98155.16;;;9.89;74.29
3812;BME280;1921;49.368;11.068;2023-04-08T12:49:04;98159.09;;;9.51;76.50
3812;BME280;1921;49.368;11.068;2023-04-08T12:51:30;98108.66;;;9.52;75.36
3812;BME280;1921;49.368;11.068;2023-04-08T12:53:56;98118.97;;;9.78;74.37
3812;BME280;1921;49.368;11.068;2023-04-08T12:56:22;98099.16;;;9.42;77.43
3812;BME280;1921;49.368;11.068;2023-04-08T12:58:48;98144.91;;;10.04;77.18
3812;BME280;1921;49.368;11.068;2023-04-08T13:01:16;98114.97;;;10.08;76.15
3812;BME280;1921;49.368;11.068;2023-04-08T13:03:41;98156.69;;;10.48;75.48
3812;BME280;1921;49.368;11.068;2023-04-08T13:06:07;98110.72;;;10.07;76.43
3812;BME280;1921;49.368;11.068;2023-04-08T13:08:33;98130.59;;;10.16;77.20
3812;BME280;1921;49.368;11.068;2023-04-08T13:10:59;98122.78;;;10.08;77.93
3812;BME280;1921;49.368;11.068;2023-04-08T13:13:25;98123.66;;;9.74;77.47
3812;BME280;1921;49.368;11.068;2023-04-08T13:15:51;98152.03;;;9.77;79.73
3812;BME280;1921;49.368;11.068;2023-04-08T13:18:17;98150.88;;;9.71;81.30
3812;BME280;1921;49.368;11.068;2023-04-08T13:20:43;98149.88;;;9.73;82.92
3812;BME280;1921;49.368;11.068;2023-04-08T13:23:08;98164.56;;;9.82;83.95
3812;BME280;1921;49.368;11.068;2023-04-08T13:25:34;98149.59;;;9.76;85.78
3812;BME280;1921;49.368;11.068;2023-04-08T13:28:00;98124.94;;;9.62;85.70
3812;BME280;1921;49.368;11.068;2023-04-08T13:30:25;98073.72;;;9.20;85.41
3812;BME280;1921;49.368;11.068;2023-04-08T13:32:51;98145.91;;;9.52;85.76
3812;BME280;1921;49.368;11.068;2023-04-08T13:35:18;98150.88;;;9.71;85.74
3812;BME280;1921;49.368;11.068;2023-04-08T13:37:43;98117.47;;;9.59;84.49
3812;BME280;1921;49.368;11.068;2023-04-08T13:40:09;98155.88;;;9.57;84.28